Time;durP1;ratioP1;P1;durP2;ratioP2;P2;SDS_P1;SDS_P2;PMS_P1;PMS_P2;Temp;Humidity;BMP_temperature;BMP_pressure;BME280_temperature;BME280_humidity;BME280_pressure;Samples;Min_cycle;Max_cycle;Signal;HPM_P1;HPM_P2
2023/04/05 00:00:44;;;;;;;7.97;5.57;;;;;;;5.95;93.26;99385.38;5066275;28;20380;-26
2023/04/05 00:03:10;;;;;;;8.43;5.68;;;;;;;5.92;94.80;99391.03;5066364;28;20101;-25
2023/04/05 00:05:35;;;;;;;8.73;5.88;;;;;;;6.03;94.82;99387.00;5066219;28;20028;-26
2023/04/05 00:08:02;;;;;;;9.07;5.57;;;;;;;5.96;95.39;99381.72;5066313;28;20029;-26
2023/04/05 00:10:29;;;;;;;9.75;5.80;;;;;;;5.81;95.05;99389.84;5066185;28;20021;-26
2023/04/05 00:12:55;;;;;;;8.48;5.72;;;;;;;5.79;94.88;99391.88;5066368;28;20106;-26
2023/04/05 00:15:21;;;;;;;9.45;5.40;;;;;;;5.81;95.21;99389.03;5066077;28;20487;-26
2023/04/05 00:17:46;;;;;;;9.63;5.90;;;;;;;5.82;94.91;99386.19;5066239;28;20025;-25
2023/04/05 00:20:12;;;;;;;9.18;5.75;;;;;;;5.71;95.79;99385.97;5066317;28;20466;-26
2023/04/05 00:22:37;;;;;;;9.38;5.20;;;;;;;5.71;94.57;99378.84;5066058;28;20055;-25
2023/04/05 00:25:04;;;;;;;9.40;5.82;;;;;;;5.78;95.71;99378.84;5065907;28;20536;-26
2023/04/05 00:27:30;;;;;;;8.38;5.45;;;;;;;5.71;94.60;99383.34;5065837;28;20474;-26
2023/04/05 00:29:55;;;;;;;8.38;5.18;;;;;;;5.64;94.91;99383.34;5066185;28;20504;-26
2023/04/05 00:32:21;;;;;;;7.28;5.22;;;;;;;5.72;94.99;99395.53;5066040;28;20503;-25
2023/04/05 00:34:46;;;;;;;8.95;5.25;;;;;;;5.75;93.65;99392.50;5066047;28;20408;-25
2023/04/05 00:37:12;;;;;;;9.20;5.50;;;;;;;5.86;93.09;99397.16;5066160;28;20496;-26
2023/04/05 00:39:38;;;;;;;8.32;5.15;;;;;;;5.82;94.37;99411.81;5065938;28;20032;-26
2023/04/05 00:42:05;;;;;;;10.82;5.60;;;;;;;5.66;93.63;99393.69;5066119;28;20020;-25
2023/04/05 00:44:34;;;;;;;8.77;5.28;;;;;;;5.75;93.48;99406.53;5066040;28;20029;-26
2023/04/05 00:47:01;;;;;;;10.25;5.97;;;;;;;5.76;94.47;99402.03;5065757;28;20036;-26
2023/04/05 00:49:29;;;;;;;8.32;4.70;;;;;;;5.75;93.90;99397.78;5065840;28;20534;-25
2023/04/05 00:51:56;;;;;;;8.95;5.30;;;;;;;5.91;93.27;99412.44;5065829;28;20143;-25
2023/04/05 00:54:22;;;;;;;7.82;4.78;;;;;;;5.76;92.63;99396.75;5065879;28;20028;-25
2023/04/05 00:56:51;;;;;;;9.52;5.28;;;;;;;5.77;93.43;99398.41;5065577;28;20412;-25
2023/04/05 00:59:17;;;;;;;7.78;4.95;;;;;;;5.66;92.36;99414.88;5067418;28;20186;-26
2023/04/05 01:01:53;;;;;;;8.07;5.30;;;;;;;5.59;92.97;99410.38;5069779;28;20575;-25
2023/04/05 01:04:26;;;;;;;8.68;5.78;;;;;;;5.56;93.85;99394.13;5069211;28;20025;-26
2023/04/05 01:07:03;;;;;;;7.43;4.90;;;;;;;5.68;93.35;99404.88;5069365;28;20119;-26
2023/04/05 01:09:52;;;;;;;9.15;5.47;;;;;;;5.80;93.57;99400.63;5069449;28;20085;-26
2023/04/05 01:12:19;;;;;;;8.60;5.38;;;;;;;5.73;93.77;99391.88;5069144;28;20085;-25
2023/04/05 01:14:49;;;;;;;8.50;5.75;;;;;;;5.63;93.97;99398.38;5068869;28;20103;-26
2023/04/05 01:17:20;;;;;;;8.57;5.75;;;;;;;5.75;95.08;99400.44;5067835;28;20024;-25
2023/04/05 01:20:09;;;;;;;8.32;5.68;;;;;;;5.79;93.85;99405.09;5067597;28;20141;-25
2023/04/05 01:22:53;;;;;;;;;;;;;;;5.74;93.04;99406.72;5068552;28;20024;-26
2023/04/05 01:25:43;;;;;;;9.48;5.47;;;;;;;5.62;93.69;99406.53;5068612;28;19920;-25
2023/04/05 01:28:46;;;;;;;8.52;5.15;;;;;;;5.66;93.22;99412.22;5068452;28;20043;-26
2023/04/05 01:31:26;;;;;;;9.57;5.75;;;;;;;5.70;94.14;99408.16;5068991;28;20040;-26
2023/04/05 01:34:04;;;;;;;9.25;5.75;;;;;;;5.68;93.22;99412.81;5068846;28;20129;-25
2023/04/05 01:36:36;;;;;;;8.02;5.88;;;;;;;5.51;94.07;99405.28;5068526;28;20028;-25
2023/04/05 01:39:04;;;;;;;9.20;5.80;;;;;;;5.42;93.05;99403.88;5068842;28;20167;-26
2023/04/05 01:41:30;;;;;;;9.48;5.50;;;;;;;5.46;92.95;99423.59;5068759;28;20035;-25
2023/04/05 01:43:55;;;;;;;9.07;6.32;;;;;;;5.56;94.36;99415.28;5068650;28;20040;-26
2023/04/05 01:46:21;;;;;;;9.35;5.28;;;;;;;5.44;92.14;99425.63;5050865;28;20029;-26
2023/04/05 01:48:46;;;;;;;10.00;6.07;;;;;;;5.49;93.51;99425.03;5068380;28;20522;-25
2023/04/05 01:51:12;;;;;;;9.00;5.80;;;;;;;5.51;92.41;99431.72;5068483;28;20402;-25
2023/04/05 01:53:37;;;;;;;9.68;5.90;;;;;;;5.52;93.20;99433.38;5068647;28;20121;-25
2023/04/05 01:56:03;;;;;;;10.02;5.85;;;;;;;5.53;91.93;99435.00;5068462;28;20035;-26
2023/04/05 01:58:28;;;;;;;10.50;6.47;;;;;;;5.63;93.46;99424.84;5068129;28;20078;-25
2023/04/05 02:00:57;;;;;;;11.13;6.80;;;;;;;5.56;93.63;99439.91;5068367;28;20013;-26
2023/04/05 02:03:23;;;;;;;10.02;5.60;;;;;;;5.50;92.23;99424.84;5068127;28;20040;-25
2023/04/05 02:05:49;;;;;;;10.60;6.18;;;;;;;5.64;92.18;99426.47;5068405;28;20116;-25
2023/04/05 02:08:14;;;;;;;11.20;6.82;;;;;;;5.77;93.17;99440.72;5068035;28;20036;-25
2023/04/05 02:10:40;;;;;;;9.18;5.63;;;;;;;5.74;93.36;99449.06;5068161;28;20111;-25
2023/04/05 02:13:06;;;;;;;8.98;5.97;;;;;;;5.59;92.43;99443.97;5050226;28;20475;-25
2023/04/05 02:15:34;;;;;;;9.85;5.97;;;;;;;5.59;93.00;99450.06;5068086;28;20511;-25
2023/04/05 02:18:02;;;;;;;;;;;;;;;5.54;92.85;99452.50;5068394;28;20025;-25
2023/04/05 02:20:28;;;;;;;9.15;5.72;;;;;;;5.51;93.43;99452.09;5068158;28;19923;-25
2023/04/05 02:22:54;;;;;;;10.07;5.97;;;;;;;5.47;92.96;99456.16;5068160;28;20784;-25
2023/04/05 02:25:20;;;;;;;10.20;6.05;;;;;;;5.57;94.56;99453.94;5067671;28;20040;-26
2023/04/05 02:27:46;;;;;;;8.77;5.68;;;;;;;5.49;93.53;99460.22;5067532;28;20081;-25
2023/04/05 02:30:13;;;;;;;10.13;6.45;;;;;;;5.57;93.61;99462.66;5067777;28;20059;-26
2023/04/05 02:32:41;;;;;;;9.75;6.15;;;;;;;5.57;92.64;99467.97;5067720;28;20118;-26
2023/04/05 02:35:08;;;;;;;9.07;6.28;;;;;;;5.58;94.13;99469.59;5067770;28;20024;-25
2023/04/05 02:37:34;;;;;;;13.30;7.05;;;;;;;5.58;94.46;99469.59;5067381;28;20099;-25
2023/04/05 02:40:00;;;;;;;13.32;7.20;;;;;;;5.64;94.35;99468.81;5067802;28;20032;-26
2023/04/05 02:42:25;;;;;;;10.70;7.07;;;;;;;5.62;92.08;99472.66;5067452;28;20016;-28
2023/04/05 02:44:51;;;;;;;11.13;7.07;;;;;;;5.58;93.38;99468.78;5067618;28;20075;-26
2023/04/05 02:47:20;;;;;;;10.55;7.35;;;;;;;5.45;93.58;99472.22;5067163;28;20025;-26
2023/04/05 02:49:45;;;;;;;;;;;;;;;5.39;95.53;99484.41;5068033;28;20423;-26
2023/04/05 02:52:11;;;;;;;11.00;6.85;;;;;;;5.39;95.99;99481.78;5067368;28;19914;-26
2023/04/05 02:54:36;;;;;;;10.70;6.88;;;;;;;5.37;93.13;99488.25;5067228;28;20032;-25
2023/04/05 02:57:02;;;;;;;11.20;6.85;;;;;;;5.39;95.02;99488.88;5067016;28;20574;-25
2023/04/05 02:59:27;;;;;;;10.55;6.93;;;;;;;5.47;95.44;99493.97;5067296;28;20020;-25
2023/04/05 03:01:53;;;;;;;9.77;6.93;;;;;;;5.54;92.84;99486.88;5067286;28;20027;-25
2023/04/05 03:04:18;;;;;;;11.27;6.88;;;;;;;5.49;93.56;99489.31;5067243;28;20028;-25
2023/04/05 03:06:47;;;;;;;9.93;6.15;;;;;;;5.38;94.38;99489.91;5067264;28;20530;-25
2023/04/05 03:09:14;;;;;;;10.57;6.40;;;;;;;5.54;92.82;99494.03;5067138;28;20044;-25
2023/04/05 03:11:39;;;;;;;10.77;7.35;;;;;;;5.34;94.74;99488.66;5066872;28;20044;-25
2023/04/05 03:14:05;;;;;;;11.13;7.15;;;;;;;5.22;92.63;99473.38;5066793;28;20032;-25
2023/04/05 03:16:30;;;;;;;11.20;7.00;;;;;;;5.28;93.08;99495.56;5066943;28;20037;-25
2023/04/05 03:18:56;;;;;;;11.30;7.53;;;;;;;5.21;93.39;99490.25;5067007;28;20024;-25
2023/04/05 03:21:22;;;;;;;11.82;6.75;;;;;;;5.26;92.58;99491.50;5066357;28;20101;-25
2023/04/05 03:23:49;;;;;;;9.73;6.93;;;;;;;5.26;92.55;99496.78;5048782;28;20094;-25
2023/04/05 03:26:15;;;;;;;12.77;7.07;;;;;;;5.24;92.12;99491.69;5066439;28;20089;-25
2023/04/05 03:28:44;;;;;;;11.65;6.78;;;;;;;5.15;92.70;99491.03;5066895;28;20028;-25
2023/04/05 03:31:10;;;;;;;12.15;7.38;;;;;;;5.15;94.00;99496.34;5066735;28;20039;-25
2023/04/05 03:33:36;;;;;;;9.93;6.40;;;;;;;5.14;94.61;99493.88;5066477;28;20029;-25
2023/04/05 03:36:02;;;;;;;10.55;6.53;;;;;;;5.27;94.66;99498.41;5066692;28;20032;-25
2023/04/05 03:38:27;;;;;;;10.43;6.40;;;;;;;5.23;94.18;99495.31;5066629;28;20040;-25
2023/04/05 03:40:53;;;;;;;10.43;6.68;;;;;;;5.22;94.77;99486.59;5066505;28;20059;-25
2023/04/05 03:43:18;;;;;;;13.25;6.43;;;;;;;5.22;95.23;99507.72;5066617;28;20090;-25
2023/04/05 03:45:44;;;;;;;12.23;6.82;;;;;;;5.32;94.10;99490.69;5066794;28;20471;-23
2023/04/05 03:48:09;;;;;;;11.40;6.97;;;;;;;5.24;94.27;99508.34;5066341;28;20466;-28
2023/04/05 03:50:35;;;;;;;10.90;6.18;;;;;;;5.20;93.84;99515.03;5066494;28;20457;-25
2023/04/05 03:53:00;;;;;;;11.57;7.10;;;;;;;5.15;94.27;99506.91;5066514;28;20782;-25
2023/04/05 03:55:26;;;;;;;12.63;7.63;;;;;;;5.15;93.56;99504.25;5066244;28;20047;-25
2023/04/05 03:57:52;;;;;;;13.38;7.50;;;;;;;5.14;94.29;99510.53;5066212;28;20020;-25
2023/04/05 04:00:18;;;;;;;13.57;6.95;;;;;;;5.29;93.39;99525.44;5066359;28;20083;-25
2023/04/05 04:02:45;;;;;;;69.82;42.50;;;;;;;5.19;93.70;99524.00;5066570;28;20073;-23
2023/04/05 04:05:11;;;;;;;355.38;149.65;;;;;;;5.05;93.01;99524.94;5066216;28;20028;-25
2023/04/05 04:07:36;;;;;;;75.55;48.10;;;;;;;5.02;92.03;99522.69;5066034;28;20458;-25
2023/04/05 04:10:04;;;;;;;21.80;18.40;;;;;;;4.89;94.21;99527.91;5066606;28;20539;-25
2023/04/05 04:12:29;;;;;;;13.10;7.47;;;;;;;5.03;92.70;99529.63;5066428;28;20052;-25
2023/04/05 04:14:55;;;;;;;12.60;7.18;;;;;;;4.97;93.44;99523.28;5066147;28;20046;-25
2023/04/05 04:17:28;;;;;;;12.80;7.82;;;;;;;4.93;95.92;99518.59;5066295;28;20021;-25
2023/04/05 04:19:54;;;;;;;11.45;7.45;;;;;;;5.12;95.18;99533.72;5065925;28;20021;-25
2023/04/05 04:22:19;;;;;;;11.88;7.78;;;;;;;5.20;94.55;99535.38;5066103;28;20029;-25
2023/04/05 04:24:48;;;;;;;11.27;7.85;;;;;;;5.04;93.57;99533.88;5066139;28;20127;-25
2023/04/05 04:27:17;;;;;;;16.92;13.48;;;;;;;4.91;94.56;99536.47;5066079;28;20131;-25
2023/04/05 04:29:45;;;;;;;11.00;6.97;;;;;;;4.89;93.55;99541.94;5066245;28;20070;-25
2023/04/05 04:32:11;;;;;;;11.80;7.45;;;;;;;5.08;93.34;99545.69;5065921;28;20110;-25
2023/04/05 04:34:43;;;;;;;13.05;7.60;;;;;;;5.02;93.19;99543.81;5068407;28;20033;-25
2023/04/05 04:37:21;;;;;;;11.68;6.97;;;;;;;5.07;93.53;99552.00;5070178;28;20062;-25
2023/04/05 04:39:47;;;;;;;11.60;7.53;;;;;;;5.10;93.52;99541.03;5069839;28;20435;-25
2023/04/05 04:42:18;;;;;;;12.93;7.45;;;;;;;5.20;94.31;99551.25;5070303;28;20028;-25
2023/04/05 04:44:44;;;;;;;10.85;6.88;;;;;;;5.19;93.66;99546.94;5069649;28;20107;-25
2023/04/05 04:47:11;;;;;;;11.50;7.68;;;;;;;5.27;92.75;99545.97;5069555;28;20143;-25
2023/04/05 04:49:37;;;;;;;11.63;7.43;;;;;;;5.27;94.31;99548.63;5069825;28;20029;-25
2023/04/05 04:52:03;;;;;;;12.07;8.15;;;;;;;5.23;92.51;99559.59;5069728;28;20082;-25
2023/04/05 04:54:28;;;;;;;13.43;7.65;;;;;;;5.23;91.73;99561.41;5069661;28;20111;-24
2023/04/05 04:56:54;;;;;;;13.13;8.02;;;;;;;5.37;92.10;99563.13;5069421;28;20048;-25
2023/04/05 04:59:20;;;;;;;13.70;6.82;;;;;;;5.38;91.47;99575.31;5069584;28;20495;-25
2023/04/05 05:01:45;;;;;;;12.55;6.95;;;;;;;5.32;92.83;99580.59;5069534;28;20017;-25
2023/04/05 05:04:11;;;;;;;11.43;6.57;;;;;;;5.23;92.88;99574.63;5069368;28;20036;-25
2023/04/05 05:06:37;;;;;;;11.73;6.80;;;;;;;5.38;91.72;99580.63;5069353;28;20021;-25
2023/04/05 05:09:02;;;;;;;11.18;6.93;;;;;;;5.46;90.89;99577.00;5069386;28;20435;-26
2023/04/05 05:11:28;;;;;;;10.93;7.15;;;;;;;5.50;91.11;99583.50;5069375;28;20024;-26
2023/04/05 05:13:53;;;;;;;13.30;7.30;;;;;;;5.53;89.89;99587.59;5069299;28;20747;-26
2023/04/05 05:16:22;;;;;;;12.48;6.97;;;;;;;5.45;92.61;99580.63;5069190;28;20028;-26
2023/04/05 05:18:49;;;;;;;10.77;5.72;;;;;;;5.38;90.61;99553.38;5069033;28;20118;-26
2023/04/05 05:21:15;;;;;;;9.88;6.32;;;;;;;5.61;90.67;99582.94;5069457;28;20111;-26
2023/04/05 05:23:41;;;;;;;12.13;6.95;;;;;;;5.68;91.91;99579.50;5068986;28;20759;-26
2023/04/05 05:26:06;;;;;;;10.23;6.30;;;;;;;5.85;90.98;99580.78;5068758;28;20480;-25
2023/04/05 05:28:31;;;;;;;10.20;5.85;;;;;;;5.98;89.35;99586.13;5068794;28;20115;-25
2023/04/05 05:30:57;;;;;;;10.43;6.45;;;;;;;6.05;89.00;99578.22;5068765;28;20466;-25
2023/04/05 05:33:24;;;;;;;11.77;6.63;;;;;;;6.14;89.54;99578.81;5069069;28;20024;-25
2023/04/05 05:35:50;;;;;;;10.55;6.05;;;;;;;6.18;88.79;99580.06;5068614;28;20079;-25
2023/04/05 05:38:18;;;;;;;10.02;6.22;;;;;;;6.39;90.15;99593.09;5068599;28;20468;-25
2023/04/05 05:40:43;;;;;;;;;;;;;;;6.41;86.80;99596.34;5069143;28;20066;-25
2023/04/05 05:43:09;;;;;;;9.80;5.07;;;;;;;6.16;85.54;99592.69;5068593;28;19908;-25
2023/04/05 05:45:35;;;;;;;10.35;6.00;;;;;;;6.18;88.04;99591.44;5060421;28;20033;-25
2023/04/05 05:48:01;;;;;;;8.55;4.75;;;;;;;6.03;87.91;99583.69;5048437;28;20032;-25
2023/04/05 05:50:26;;;;;;;9.65;5.85;;;;;;;6.11;88.59;99589.81;5048575;28;20025;-25
2023/04/05 05:52:52;;;;;;;10.18;6.07;;;;;;;6.28;86.37;99587.59;5048413;28;20021;-25
2023/04/05 05:55:17;;;;;;;8.68;5.53;;;;;;;6.40;85.78;99594.75;5048947;28;20033;-22
2023/04/05 05:57:44;;;;;;;8.43;5.57;;;;;;;6.33;85.00;99604.50;5048301;28;20469;-25
2023/04/05 06:00:10;;;;;;;7.38;4.57;;;;;;;6.19;86.52;99595.75;5048457;28;20108;-25
2023/04/05 06:02:35;;;;;;;8.88;5.28;;;;;;;6.26;85.66;99589.66;5048278;28;20036;-25
2023/04/05 06:05:01;;;;;;;10.15;5.72;;;;;;;6.36;86.16;99603.31;5048345;28;20033;-25
2023/04/05 06:07:27;;;;;;;8.45;5.72;;;;;;;6.22;86.42;99602.47;5047958;28;20025;-25
2023/04/05 06:09:52;;;;;;;9.07;6.07;;;;;;;6.36;86.52;99609.41;5048376;28;20029;-25
2023/04/05 06:12:20;;;;;;;10.13;5.93;;;;;;;6.34;87.41;99610.63;5048223;28;20067;-25
2023/04/05 06:14:45;;;;;;;10.68;6.72;;;;;;;6.47;86.94;99609.81;5047866;28;20476;-26
2023/04/05 06:17:11;;;;;;;9.80;5.50;;;;;;;6.67;84.06;99610.63;5047985;28;20131;-26
2023/04/05 06:19:36;;;;;;;9.25;6.03;;;;;;;6.62;85.75;99607.78;5047876;28;20027;-25
2023/04/05 06:22:01;;;;;;;9.88;5.53;;;;;;;6.54;85.63;99616.75;5048044;28;20511;-25
2023/04/05 06:24:30;;;;;;;10.05;6.20;;;;;;;6.78;85.28;99611.84;5048087;28;20029;-25
2023/04/05 06:26:58;;;;;;;9.77;6.25;;;;;;;6.87;85.61;99607.16;5047475;28;20532;-25
2023/04/05 06:29:24;;;;;;;9.70;7.00;;;;;;;6.84;86.39;99611.84;5047757;28;20036;-25
2023/04/05 06:31:50;;;;;;;9.85;6.45;;;;;;;6.96;84.58;99616.53;5047819;28;20037;-25
2023/04/05 06:34:15;;;;;;;12.38;6.63;;;;;;;6.94;82.35;99624.66;5047635;28;20032;-25
2023/04/05 06:36:41;;;;;;;8.68;5.40;;;;;;;6.93;84.49;99611.66;5046835;28;20409;-23
2023/04/05 06:39:07;;;;;;;9.13;5.47;;;;;;;7.39;84.04;99616.03;5046979;28;20777;-26
2023/04/05 06:41:32;;;;;;;9.05;5.13;;;;;;;7.35;81.69;99620.09;5047819;28;20515;-25
2023/04/05 06:43:58;;;;;;;9.60;5.57;;;;;;;7.52;80.49;99617.81;5047591;28;20033;-25
2023/04/05 06:46:23;;;;;;;8.15;5.15;;;;;;;7.23;80.96;99615.47;5047216;28;20028;-25
2023/04/05 06:48:49;;;;;;;9.93;6.22;;;;;;;7.06;83.31;99624.06;5047549;28;20028;-25
2023/04/05 06:51:15;;;;;;;12.40;7.78;;;;;;;7.13;82.91;99627.50;5047203;28;20029;-26
2023/04/05 06:53:40;;;;;;;11.05;6.63;;;;;;;7.35;82.78;99628.88;5047211;28;20423;-25
2023/04/05 06:56:06;;;;;;;8.07;4.68;;;;;;;7.03;80.01;99626.09;5046512;28;20033;-25
2023/04/05 06:58:31;;;;;;;7.85;4.90;;;;;;;7.03;80.53;99649.16;5046912;28;20031;-26
2023/04/05 07:00:59;;;;;;;10.43;5.65;;;;;;;6.97;81.95;99602.25;5047159;28;20025;-26
2023/04/05 07:03:25;;;;;;;8.83;4.50;;;;;;;7.30;81.94;99644.63;5046936;28;20107;-25
2023/04/05 07:05:52;;;;;;;9.00;6.10;;;;;;;7.39;81.69;99645.19;5046867;28;20655;-25
2023/04/05 07:08:18;;;;;;;9.25;5.65;;;;;;;7.35;82.11;99644.78;5047355;28;20604;-26
2023/04/05 07:10:44;;;;;;;8.40;5.55;;;;;;;7.56;82.13;99645.53;5047372;28;20091;-25
2023/04/05 07:13:10;;;;;;;7.57;4.93;;;;;;;7.82;80.33;99645.44;5047122;28;20033;-26
2023/04/05 07:15:35;;;;;;;8.27;4.22;;;;;;;8.29;80.54;99644.41;5046777;28;20654;-26
2023/04/05 07:18:01;;;;;;;8.52;5.10;;;;;;;8.49;78.59;99645.09;5052405;28;20083;-26
2023/04/05 07:20:26;;;;;;;5.80;4.07;;;;;;;8.16;75.48;99666.53;5051001;28;20506;-26
2023/04/05 07:22:51;;;;;;;7.30;4.75;;;;;;;8.37;77.93;99652.91;5056776;28;20036;-25
2023/04/05 07:25:17;;;;;;;7.28;4.68;;;;;;;8.73;80.68;99662.09;5052450;28;20143;-26
2023/04/05 07:27:43;;;;;;;7.80;4.95;;;;;;;9.02;76.65;99665.13;5060086;28;20044;-25
2023/04/05 07:30:09;;;;;;;8.88;5.47;;;;;;;8.79;78.18;99666.56;5066708;28;20025;-26
2023/04/05 07:32:34;;;;;;;5.45;3.20;;;;;;;8.35;75.06;99670.91;5066633;28;20028;-26
2023/04/05 07:34:59;;;;;;;6.28;4.05;;;;;;;8.04;77.15;99661.88;5066561;28;20147;-26
2023/04/05 07:37:26;;;;;;;6.47;4.00;;;;;;;7.74;77.27;99669.56;5066575;28;20089;-26
2023/04/05 07:39:51;;;;;;;8.02;5.05;;;;;;;7.95;78.62;99660.53;5066710;28;20021;-26
2023/04/05 07:42:20;;;;;;;6.85;4.32;;;;;;;8.28;78.00;99675.47;5065981;28;20420;-26
2023/04/05 07:44:45;;;;;;;7.95;4.80;;;;;;;8.64;78.48;99671.38;5065872;28;20055;-26
2023/04/05 07:47:11;;;;;;;7.07;4.50;;;;;;;8.40;77.64;99675.59;5066204;28;20024;-26
2023/04/05 07:49:36;;;;;;;7.70;4.82;;;;;;;8.59;79.41;99665.91;5065994;28;20020;-26
2023/04/05 07:52:02;;;;;;;7.47;4.63;;;;;;;8.78;79.40;99674.75;5066456;28;20027;-27
2023/04/05 07:54:30;;;;;;;8.27;4.70;;;;;;;9.15;78.96;99680.97;5066308;28;20024;-26
2023/04/05 07:56:57;;;;;;;6.85;4.40;;;;;;;9.34;74.33;99689.00;5066375;28;20056;-26
2023/04/05 07:59:23;;;;;;;8.23;4.82;;;;;;;9.43;76.17;99682.34;5065730;28;20039;-26
2023/04/05 08:01:48;;;;;;;9.00;4.60;;;;;;;9.44;74.62;99684.00;5064910;28;20017;-26
2023/04/05 08:04:14;;;;;;;6.68;4.40;;;;;;;9.62;76.36;99686.66;5065214;28;20111;-26
2023/04/05 08:06:39;;;;;;;7.03;4.45;;;;;;;9.42;73.39;99688.72;5065713;28;20028;-26
2023/04/05 08:09:07;;;;;;;7.28;4.13;;;;;;;9.13;74.85;99693.66;5070922;28;20415;-26
2023/04/05 08:11:33;;;;;;;6.60;4.05;;;;;;;8.85;76.00;99686.97;5072469;28;20043;-26
2023/04/05 08:13:58;;;;;;;8.25;4.20;;;;;;;9.04;76.45;99700.31;5073129;28;20020;-26
2023/04/05 08:16:23;;;;;;;6.93;4.07;;;;;;;8.80;77.34;99694.75;5072980;28;20033;-25
2023/04/05 08:18:49;;;;;;;8.13;4.60;;;;;;;8.74;76.54;99695.63;5072814;28;20418;-26
2023/04/05 08:21:14;;;;;;;6.10;3.78;;;;;;;8.85;76.60;99697.59;5073124;28;20032;-26
2023/04/05 08:23:40;;;;;;;7.45;4.15;;;;;;;8.88;75.33;99698.19;5072751;28;20028;-26
2023/04/05 08:26:06;;;;;;;6.80;4.07;;;;;;;8.82;75.99;99702.53;5072619;28;20045;-26
2023/04/05 08:28:32;;;;;;;7.80;4.00;;;;;;;8.98;74.06;99693.22;5072643;28;20563;-26
2023/04/05 08:30:58;;;;;;;7.70;4.35;;;;;;;9.07;75.55;99699.06;5072800;28;20032;-27
2023/04/05 08:33:29;;;;;;;7.38;4.25;;;;;;;9.24;73.74;99700.94;5072853;28;20032;-26
2023/04/05 08:35:56;;;;;;;7.05;4.47;;;;;;;9.42;75.24;99704.69;5072714;28;20016;-26
2023/04/05 08:38:22;;;;;;;6.18;3.67;;;;;;;9.36;74.69;99702.91;5072763;28;20028;-26
2023/04/05 08:40:47;;;;;;;5.20;3.65;;;;;;;9.15;75.37;99698.78;5072545;28;20042;-26
2023/04/05 08:44:02;;;;;;;6.72;4.20;;;;;;;9.64;77.05;99697.91;5072791;28;20422;-26
2023/04/05 08:46:33;;;;;;;7.18;4.20;;;;;;;9.34;75.81;99689.81;5036862;28;20028;-25
2023/04/05 08:49:03;;;;;;;7.15;4.32;;;;;;;9.34;75.17;99704.97;5072237;28;20031;-26
2023/04/05 08:51:28;;;;;;;7.25;4.43;;;;;;;9.47;74.81;99704.81;5072955;28;20044;-26
2023/04/05 08:53:55;;;;;;;6.63;4.45;;;;;;;9.51;76.11;99711.34;5072730;28;20137;-26
2023/04/05 08:56:25;;;;;;;7.53;4.57;;;;;;;9.53;74.16;99687.16;5072396;28;20034;-26
2023/04/05 08:59:11;;;;;;;10.00;6.07;;;;;;;9.53;75.17;99719.91;5072601;28;20040;-26
2023/04/05 09:01:41;;;;;;;6.63;4.20;;;;;;;9.23;72.61;99691.34;5072753;28;20032;-26
2023/04/05 09:04:12;;;;;;;6.50;3.95;;;;;;;9.59;72.97;99716.38;5072450;28;20035;-26
2023/04/05 09:06:38;;;;;;;6.68;4.53;;;;;;;9.44;73.44;99722.06;5072450;28;20086;-26
2023/04/05 09:09:07;;;;;;;7.40;4.90;;;;;;;9.32;75.12;99702.53;5072337;28;20033;-26
2023/04/05 09:11:34;;;;;;;5.88;4.10;;;;;;;9.37;74.11;99720.50;5072440;28;20089;-26
2023/04/05 09:14:03;;;;;;;6.50;4.40;;;;;;;9.26;73.45;99708.72;5072208;28;20036;-26
2023/04/05 09:16:32;;;;;;;6.57;4.30;;;;;;;9.23;73.64;99698.50;5072266;28;20029;-26
2023/04/05 09:18:57;;;;;;;6.78;4.40;;;;;;;9.25;72.99;99713.25;5071489;28;20105;-26
2023/04/05 09:21:23;;;;;;;6.97;4.47;;;;;;;9.02;73.90;99713.00;5068274;28;20040;-26
2023/04/05 09:23:53;;;;;;;8.88;5.20;;;;;;;9.11;73.47;99710.88;5069208;28;20036;-26
2023/04/05 09:26:20;;;;;;;7.70;5.70;;;;;;;9.46;73.26;99713.88;5068774;28;20439;-26
2023/04/05 09:28:46;;;;;;;6.50;4.00;;;;;;;9.44;75.18;99722.06;5069024;28;20464;-26
2023/04/05 09:31:31;;;;;;;5.78;3.75;;;;;;;9.43;72.97;99724.94;5069074;28;20617;-26
2023/04/05 09:34:02;;;;;;;8.15;5.55;;;;;;;9.34;74.78;99712.97;5069111;28;20025;-26
2023/04/05 09:36:28;;;;;;;7.20;4.40;;;;;;;9.69;73.53;99720.38;5069018;28;20020;-26
2023/04/05 09:39:04;;;;;;;7.75;5.03;;;;;;;10.02;72.62;99712.81;5068891;28;20031;-26
2023/04/05 09:41:29;;;;;;;6.47;4.18;;;;;;;9.75;69.15;99711.50;5068496;28;20141;-25
2023/04/05 09:43:55;;;;;;;8.00;5.22;;;;;;;9.38;72.12;99719.47;5068519;28;20532;-26
2023/04/05 09:46:37;;;;;;;6.00;3.50;;;;;;;9.58;70.99;99717.44;5068681;28;20025;-26
2023/04/05 09:49:05;;;;;;;5.57;3.70;;;;;;;9.74;74.68;99717.84;5068900;28;20024;-26
2023/04/05 09:51:36;;;;;;;6.35;3.80;;;;;;;9.80;70.19;99723.09;5068490;28;20078;-26
2023/04/05 09:54:06;;;;;;;5.82;3.75;;;;;;;9.69;71.58;99718.53;5068304;28;20087;-26
2023/04/05 09:56:36;;;;;;;7.30;4.72;;;;;;;9.55;73.38;99691.22;5050518;28;20041;-26
2023/04/05 09:59:09;;;;;;;6.85;4.10;;;;;;;9.50;72.83;99719.53;5068569;28;20028;-26
2023/04/05 10:01:36;;;;;;;7.38;4.70;;;;;;;9.65;72.53;99722.66;5068564;28;20031;-26
2023/04/05 10:04:02;;;;;;;6.75;4.43;;;;;;;9.82;71.74;99720.22;5068282;28;20067;-26
2023/04/05 10:06:38;;;;;;;6.50;4.38;;;;;;;9.77;69.33;99674.81;5068224;28;20052;-26
2023/04/05 10:09:04;;;;;;;7.10;4.57;;;;;;;9.64;71.97;99723.69;5068154;28;20521;-26
2023/04/05 10:11:31;;;;;;;6.70;4.10;;;;;;;9.86;71.71;99718.75;5067826;28;20021;-26
2023/04/05 10:14:00;;;;;;;5.60;3.33;;;;;;;9.96;71.10;99724.38;5068078;28;20113;-26
2023/04/05 10:16:28;;;;;;;6.60;4.15;;;;;;;9.86;70.21;99716.09;5068019;28;20048;-26
2023/04/05 10:18:54;;;;;;;6.90;4.35;;;;;;;9.87;71.46;99717.72;5068062;28;20036;-26
2023/04/05 10:21:22;;;;;;;7.13;4.20;;;;;;;9.78;73.40;99706.53;5068137;28;20033;-18
2023/04/05 10:23:53;;;;;;;;;;;;;;;10.34;70.74;99722.47;5064062;28;20507;-26
2023/04/05 10:26:32;;;;;;;7.43;5.00;;;;;;;10.37;70.02;99722.84;5067589;28;20011;-26
2023/04/05 10:29:00;;;;;;;;;;;;;;;10.22;69.39;99725.09;5068282;28;20039;-26
2023/04/05 10:31:45;;;;;;;5.80;3.80;;;;;;;9.97;71.12;99715.34;5066730;28;20409;-26
2023/04/05 10:34:28;;;;;;;6.25;3.95;;;;;;;9.83;71.18;99714.69;5068156;28;20073;-24
2023/04/05 10:37:00;;;;;;;5.78;4.00;;;;;;;9.68;72.31;99714.22;5067687;28;20534;-26
2023/04/05 10:39:27;;;;;;;7.22;4.72;;;;;;;10.03;72.59;99714.47;5067606;28;20031;-27
2023/04/05 10:41:58;;;;;;;6.97;4.20;;;;;;;10.23;70.98;99706.19;5055606;28;20056;-27
2023/04/05 10:44:23;;;;;;;6.95;4.35;;;;;;;10.26;70.24;99713.75;5055024;28;20107;-26
2023/04/05 10:46:51;;;;;;;6.10;3.88;;;;;;;10.33;71.19;99712.88;5065240;28;20124;-27
2023/04/05 10:49:37;;;;;;;5.78;3.40;;;;;;;9.90;70.50;99717.25;5061665;28;20028;-26
2023/04/05 10:52:04;;;;;;;8.05;4.00;;;;;;;9.78;70.85;99727.03;5067211;28;20401;-26
2023/04/05 11:07:11;;;;;;;6.15;3.72;;;;;;;10.71;66.79;99731.22;5144138;27;21218;-40
2023/04/05 11:09:48;;;;;;;5.22;3.38;;;;;;;10.60;66.11;99731.97;5103112;28;20071;-39
2023/04/05 11:12:14;;;;;;;4.55;3.13;;;;;;;10.42;68.70;99723.00;5103333;28;20064;-40
2023/04/05 11:14:40;;;;;;;4.75;2.97;;;;;;;10.32;68.34;99737.88;5103394;28;20674;-41
2023/04/05 11:17:26;;;;;;;5.25;3.00;;;;;;;10.01;67.97;99732.53;5103365;28;20020;-42
2023/04/05 11:20:02;;;;;;;4.30;3.00;;;;;;;10.00;69.13;99708.75;5103324;28;20612;-42
2023/04/05 11:22:29;;;;;;;4.90;3.25;;;;;;;10.37;68.77;99736.19;5103127;28;20077;-41
2023/04/05 11:24:57;;;;;;;5.65;3.60;;;;;;;10.53;70.07;99720.59;5102985;28;20051;-43
2023/04/05 11:27:28;;;;;;;;;;;;;;;10.43;68.11;99737.13;5103801;28;20028;-41
2023/04/05 11:29:55;;;;;;;4.50;2.92;;;;;;;10.13;67.81;99729.88;5103066;28;19998;-41
2023/04/05 11:32:21;;;;;;;4.05;2.15;;;;;;;9.77;68.35;99736.06;5102453;28;20105;-41
2023/04/05 11:35:04;;;;;;;4.43;2.35;;;;;;;9.63;68.53;99720.22;5102880;28;20470;-41
2023/04/05 11:37:52;;;;;;;4.53;2.95;;;;;;;10.06;69.89;99729.97;5136336;27;20027;-41
2023/04/05 11:40:43;;;;;;;4.63;2.80;;;;;;;10.01;67.25;99731.69;5144035;27;20031;-43
2023/04/05 11:43:11;;;;;;;4.32;2.80;;;;;;;9.93;69.64;99724.81;5141547;27;20511;-41
2023/04/05 11:45:37;;;;;;;6.03;2.83;;;;;;;9.91;71.65;99732.22;5132575;27;20032;-43
2023/04/05 11:48:08;;;;;;;3.97;2.50;;;;;;;9.97;69.73;99725.16;5111944;28;20034;-42
2023/04/05 11:50:35;;;;;;;4.88;3.00;;;;;;;9.82;68.73;99733.53;5102867;28;20032;-42
2023/04/05 11:53:08;;;;;;;4.10;2.25;;;;;;;9.75;69.08;99728.28;5102880;28;20511;-41
2023/04/05 11:55:34;;;;;;;4.38;2.50;;;;;;;9.41;71.61;99716.34;5102611;28;20032;-41